Time;durP1;ratioP1;P1;durP2;ratioP2;P2;SDS_P1;SDS_P2;PMS_P1;PMS_P2;Temp;Humidity;BMP_temperature;BMP_pressure;BME280_temperature;BME280_humidity;BME280_pressure;Samples;Min_cycle;Max_cycle;Signal;HPM_P1;HPM_P2
2021/09/09 00:00:31;;;;;;;;;;;;;;;18.33;75.73;101133.06;5048028;28;19925;-46
2021/09/09 00:02:58;;;;;;;;;;;;;;;18.26;75.99;101134.63;5049288;28;19925;-44
2021/09/09 00:05:25;;;;;;;;;;;;;;;18.21;76.22;101135.06;5047833;28;19929;-48
2021/09/09 00:07:51;;;;;;;;;;;;;;;18.13;76.42;101126.94;5050593;28;20299;-46
2021/09/09 00:10:18;;;;;;;;;;;;;;;18.10;76.73;101128.06;5035005;28;19928;-43
2021/09/09 00:12:45;;;;;;;;;;;;;;;18.11;76.59;101128.91;5051480;28;20307;-43
2021/09/09 00:15:11;;;;;;;;;;;;;;;18.06;76.61;101124.88;5052938;28;20337;-52
2021/09/09 00:17:39;;;;;;;;;;;;;;;18.01;76.72;101121.78;5053014;28;19978;-52
2021/09/09 00:20:07;;;;;;;;;;;;;;;18.07;76.64;101121.19;5052323;28;19925;-51
2021/09/09 00:22:34;;;;;;;;;;;;;;;18.06;76.77;101116.03;5052681;28;19935;-49
2021/09/09 00:25:01;;;;;;;;;;;;;;;18.01;76.96;101113.81;5051516;28;19924;-52
2021/09/09 00:27:28;;;;;;;;;;;;;;;18.06;76.49;101111.56;5033147;28;19936;-51
2021/09/09 00:29:54;;;;;;;;;;;;;;;18.05;76.81;101107.22;5051198;28;20453;-50
2021/09/09 00:32:21;;;;;;;;;;;;;;;17.99;76.44;101102.44;5050727;28;19925;-50
2021/09/09 00:34:48;;;;;;;;;;;;;;;17.97;77.12;101104.41;5052230;28;19932;-53
2021/09/09 00:37:14;;;;;;;;;;;;;;;17.95;77.04;101101.03;5051353;28;19974;-53
2021/09/09 00:39:41;;;;;;;;;;;;;;;17.94;77.26;101098.53;5052610;28;19951;-52
2021/09/09 00:42:08;;;;;;;;;;;;;;;17.90;77.29;101097.94;5050446;28;19947;-45
2021/09/09 00:44:34;;;;;;;;;;;;;;;17.79;77.65;101088.28;5052014;28;19924;-48
2021/09/09 00:47:04;;;;;;;;;;;;;;;17.77;77.91;101089.44;5052233;28;19932;-47
2021/09/09 00:49:32;;;;;;;;;;;;;;;17.81;77.91;101083.69;5051412;28;19955;-49
2021/09/09 00:51:58;;;;;;;;;;;;;;;17.72;78.17;101088.03;5050895;28;19925;-48
2021/09/09 00:54:25;;;;;;;;;;;;;;;17.74;78.10;101077.25;5051785;28;19983;-44
2021/09/09 00:56:52;;;;;;;;;;;;;;;17.69;78.36;101076.84;5049986;28;20376;-46
2021/09/09 00:59:18;;;;;;;;;;;;;;;17.63;78.37;101072.91;5049860;28;19929;-48
2021/09/09 01:01:46;;;;;;;;;;;;;;;17.57;78.59;101073.47;5051959;28;19979;-45
2021/09/09 01:04:13;;;;;;;;;;;;;;;17.65;78.43;101070.13;5051731;28;19925;-48
2021/09/09 01:06:39;;;;;;;;;;;;;;;17.61;78.25;101066.06;5051624;28;19929;-52
2021/09/09 01:09:06;;;;;;;;;;;;;;;17.57;78.15;101076.97;5051617;28;19929;-51
2021/09/09 01:11:33;;;;;;;;;;;;;;;17.55;78.43;101067.47;5049505;28;19929;-52
2021/09/09 01:14:07;;;;;;;;;;;;;;;17.54;78.38;101065.78;5050617;28;20376;-50
2021/09/09 01:16:34;;;;;;;;;;;;;;;17.51;78.35;101066.06;5051816;28;20004;-51
2021/09/09 01:19:01;;;;;;;;;;;;;;;17.51;78.38;101072.22;5050793;28;19932;-52
2021/09/09 01:21:28;;;;;;;;;;;;;;;17.46;78.31;101062.97;5050029;28;19925;-49
2021/09/09 01:23:55;;;;;;;;;;;;;;;17.42;78.90;101067.72;5051311;28;19924;-54
2021/09/09 01:26:22;;;;;;;;;;;;;;;17.37;78.97;101060.19;5049058;28;19924;-50
2021/09/09 01:28:49;;;;;;;;;;;;;;;17.37;78.55;101060.19;5050317;28;19924;-53
2021/09/09 01:31:16;;;;;;;;;;;;;;;17.39;78.63;101057.38;5051148;28;19925;-49
2021/09/09 01:33:42;;;;;;;;;;;;;;;17.32;78.89;101059.75;5050983;28;19960;-54
2021/09/09 01:36:09;;;;;;;;;;;;;;;17.30;78.85;101056.41;5051094;28;19928;-53
2021/09/09 01:38:36;;;;;;;;;;;;;;;17.30;78.89;101061.72;5033511;28;19925;-50
2021/09/09 01:41:03;;;;;;;;;;;;;;;17.29;78.86;101060.03;5050967;28;19925;-51
2021/09/09 01:43:30;;;;;;;;;;;;;;;17.30;78.63;101047.56;5049247;28;19924;-54
2021/09/09 01:45:57;;;;;;;;;;;;;;;17.29;78.92;101054.72;5051299;28;19956;-51
2021/09/09 01:48:24;;;;;;;;;;;;;;;17.22;78.98;101057.09;5049873;28;19928;-54
2021/09/09 01:50:50;;;;;;;;;;;;;;;17.20;79.16;101052.88;5032703;28;19975;-50
2021/09/09 01:53:17;;;;;;;;;;;;;;;17.17;79.07;101047.84;5049386;28;19924;-54
2021/09/09 01:55:44;;;;;;;;;;;;;;;17.16;79.33;101051.47;5050975;28;19929;-53
2021/09/09 01:58:10;;;;;;;;;;;;;;;17.14;79.35;101053.41;5048143;28;19971;-51
2021/09/09 02:00:37;;;;;;;;;;;;;;;17.14;79.30;101034.81;5050767;28;19928;-54
2021/09/09 02:03:04;;;;;;;;;;;;;;;17.10;78.91;101047.56;5050575;28;19975;-50
2021/09/09 02:05:30;;;;;;;;;;;;;;;17.09;79.43;101042.38;5049465;28;19925;-50
2021/09/09 02:07:57;;;;;;;;;;;;;;;16.99;79.55;101039.72;5048762;28;19925;-52
2021/09/09 02:10:24;;;;;;;;;;;;;;;16.97;79.93;101036.34;5050037;28;20285;-53
2021/09/09 02:12:50;;;;;;;;;;;;;;;16.91;79.96;101029.78;5048762;28;19932;-49
2021/09/09 02:15:17;;;;;;;;;;;;;;;16.94;79.63;101031.31;5049325;28;20387;-53
2021/09/09 02:17:45;;;;;;;;;;;;;;;16.90;79.86;101030.75;5050521;28;20479;-51
2021/09/09 02:20:13;;;;;;;;;;;;;;;16.83;80.34;101033.06;5050057;28;20024;-53
2021/09/09 02:22:39;;;;;;;;;;;;;;;16.83;79.77;101026.94;5050449;28;19979;-49
2021/09/09 02:25:06;;;;;;;;;;;;;;;16.80;80.01;101025.38;5049326;28;19955;-52
2021/09/09 02:27:33;;;;;;;;;;;;;;;16.81;80.36;101026.22;5048245;28;19924;-51
2021/09/09 02:29:59;;;;;;;;;;;;;;;16.77;80.06;101030.13;5048654;28;19925;-51
2021/09/09 02:32:26;;;;;;;;;;;;;;;16.69;80.62;101033.47;5050038;28;19978;-49
2021/09/09 02:34:52;;;;;;;;;;;;;;;16.67;80.87;101030.09;5048162;28;20347;-51
2021/09/09 02:37:19;;;;;;;;;;;;;;;16.62;80.99;101025.19;5050020;28;19929;-52
2021/09/09 02:39:47;;;;;;;;;;;;;;;16.53;81.19;101033.97;5049397;28;20370;-48
2021/09/09 02:42:14;;;;;;;;;;;;;;;16.48;81.53;101038.81;5048551;28;20284;-50
2021/09/09 02:44:41;;;;;;;;;;;;;;;16.45;81.90;101031.97;5048412;28;19929;-52
2021/09/09 02:47:07;;;;;;;;;;;;;;;16.44;81.66;101038.25;5050824;28;19950;-53
2021/09/09 02:49:34;;;;;;;;;;;;;;;16.44;81.50;101040.91;5049468;28;20045;-50
2021/09/09 02:52:00;;;;;;;;;;;;;;;16.39;81.53;101037.81;5049897;28;19925;-53
2021/09/09 02:54:27;;;;;;;;;;;;;;;16.41;81.62;101033.22;5049697;28;19935;-52
2021/09/09 02:56:54;;;;;;;;;;;;;;;16.35;81.94;101042.56;5048893;28;19928;-52
2021/09/09 02:59:20;;;;;;;;;;;;;;;16.34;81.93;101042.69;5049319;28;20276;-52
2021/09/09 03:01:47;;;;;;;;;;;;;;;16.27;82.24;101037.06;5050272;28;19932;-53
2021/09/09 03:04:14;;;;;;;;;;;;;;;16.27;82.45;101029.09;5048989;28;19935;-53
2021/09/09 03:06:40;;;;;;;;;;;;;;;16.29;81.83;101029.84;5050339;28;19974;-51
2021/09/09 03:09:07;;;;;;;;;;;;;;;16.21;82.29;101026.97;5049921;28;20422;-51
2021/09/09 03:11:34;;;;;;;;;;;;;;;16.22;82.17;101026.00;5048854;28;19937;-53
2021/09/09 03:14:00;;;;;;;;;;;;;;;16.19;82.28;101036.88;5048686;28;19982;-49
2021/09/09 03:16:27;;;;;;;;;;;;;;;16.14;82.42;101026.69;5049838;28;20307;-54
2021/09/09 03:18:54;;;;;;;;;;;;;;;16.18;82.59;101022.78;5049363;28;19928;-51
2021/09/09 03:21:20;;;;;;;;;;;;;;;16.10;82.47;101021.75;5049633;28;19929;-51
2021/09/09 03:23:47;;;;;;;;;;;;;;;16.08;82.48;101024.53;5049773;28;20346;-53
2021/09/09 03:26:13;;;;;;;;;;;;;;;16.09;83.10;101022.72;5049591;28;19925;-52
2021/09/09 03:28:40;;;;;;;;;;;;;;;15.99;82.76;101026.19;5048340;28;19940;-50
2021/09/09 03:31:07;;;;;;;;;;;;;;;15.93;82.89;101015.25;5050028;28;19925;-55
2021/09/09 03:33:33;;;;;;;;;;;;;;;15.85;83.45;101014.06;5049106;28;20379;-49
2021/09/09 03:36:00;;;;;;;;;;;;;;;15.86;83.25;101014.94;5049462;28;19925;-51
2021/09/09 03:38:27;;;;;;;;;;;;;;;15.86;82.80;101012.28;5047914;28;19944;-52
2021/09/09 03:40:53;;;;;;;;;;;;;;;15.90;83.19;101011.03;5048269;28;19976;-43
2021/09/09 03:43:20;;;;;;;;;;;;;;;15.82;82.87;101008.22;5051712;28;19925;-44
2021/09/09 03:45:46;;;;;;;;;;;;;;;15.77;82.93;101005.06;5053686;28;19929;-43
2021/09/09 03:48:13;;;;;;;;;;;;;;;15.82;82.78;101009.03;5053442;28;19925;-43
2021/09/09 03:50:40;;;;;;;;;;;;;;;15.80;83.30;101004.84;5053058;28;19971;-44
2021/09/09 03:53:06;;;;;;;;;;;;;;;15.85;83.09;101008.78;5052066;28;20065;-44
2021/09/09 03:55:33;;;;;;;;;;;;;;;15.80;83.10;101010.13;5052993;28;19970;-44
2021/09/09 03:58:00;;;;;;;;;;;;;;;15.82;83.42;101003.72;5050626;28;19932;-45
2021/09/09 04:00:26;;;;;;;;;;;;;;;15.81;83.03;101006.53;5052611;28;19933;-43
2021/09/09 04:02:53;;;;;;;;;;;;;;;15.80;82.86;101003.03;5051216;28;19929;-45
2021/09/09 04:05:20;;;;;;;;;;;;;;;15.77;82.68;101002.41;5051939;28;20304;-43
2021/09/09 04:07:47;;;;;;;;;;;;;;;15.72;82.77;100998.34;5018927;28;19936;-46
2021/09/09 04:10:13;;;;;;;;;;;;;;;15.75;83.16;101007.00;5052767;28;20261;-46
2021/09/09 04:12:40;;;;;;;;;;;;;;;15.69;82.97;101001.25;5049882;28;19971;-46
2021/09/09 04:15:07;;;;;;;;;;;;;;;15.68;83.40;101002.22;5052012;28;20296;-48
2021/09/09 04:17:34;;;;;;;;;;;;;;;15.69;83.11;100995.97;5052691;28;19932;-47
2021/09/09 04:20:01;;;;;;;;;;;;;;;15.69;82.85;101000.41;5052318;28;19924;-49
2021/09/09 04:22:28;;;;;;;;;;;;;;;15.65;83.48;100999.84;5051001;28;19925;-44
2021/09/09 04:24:55;;;;;;;;;;;;;;;15.62;83.14;100993.94;5052244;28;19936;-47
2021/09/09 04:27:22;;;;;;;;;;;;;;;15.62;83.23;100997.44;5050196;28;19978;-44
2021/09/09 04:29:49;;;;;;;;;;;;;;;15.63;83.35;100987.69;5051967;28;19925;-46
2021/09/09 04:32:16;;;;;;;;;;;;;;;15.60;83.41;100988.78;5051647;28;20328;-50
2021/09/09 04:34:43;;;;;;;;;;;;;;;15.58;83.86;100972.16;5050669;28;20404;-51
2021/09/09 04:37:09;;;;;;;;;;;;;;;15.61;83.64;100973.69;5052382;28;20379;-50
2021/09/09 04:39:36;;;;;;;;;;;;;;;15.62;83.81;100970.09;5034829;28;19929;-50
2021/09/09 04:42:03;;;;;;;;;;;;;;;15.63;83.58;100975.25;5050651;28;19924;-53
2021/09/09 04:44:30;;;;;;;;;;;;;;;15.60;83.70;100972.88;5051677;28;20429;-49
2021/09/09 04:46:56;;;;;;;;;;;;;;;15.58;83.68;100977.44;5052645;28;19928;-52
2021/09/09 04:49:23;;;;;;;;;;;;;;;15.55;83.53;100978.53;5051388;28;20303;-51
2021/09/09 04:51:50;;;;;;;;;;;;;;;15.58;84.05;100992.53;5052019;28;19978;-51
2021/09/09 04:54:16;;;;;;;;;;;;;;;15.59;83.82;100988.91;5051348;28;19925;-51
2021/09/09 04:56:43;;;;;;;;;;;;;;;15.56;83.64;100984.72;5051077;28;19956;-52
2021/09/09 04:59:09;;;;;;;;;;;;;;;15.52;84.10;100980.63;5050511;28;20023;-52
2021/09/09 05:01:36;;;;;;;;;;;;;;;15.50;83.86;100983.41;5050442;28;19931;-53
2021/09/09 05:04:03;;;;;;;;;;;;;;;15.51;84.26;100986.91;5050737;28;20027;-56
2021/09/09 05:06:30;;;;;;;;;;;;;;;15.50;84.39;100988.72;5050263;28;19932;-52
2021/09/09 05:08:56;;;;;;;;;;;;;;;15.52;83.74;100980.63;5051577;28;19929;-51
2021/09/09 05:11:23;;;;;;;;;;;;;;;15.54;83.93;100978.69;5049453;28;19925;-51
2021/09/09 05:13:50;;;;;;;;;;;;;;;15.51;83.64;100982.44;5049972;28;19936;-52
2021/09/09 05:16:16;;;;;;;;;;;;;;;15.49;83.97;100980.91;5050606;28;19925;-52
2021/09/09 05:18:43;;;;;;;;;;;;;;;15.51;83.88;100971.81;5050111;28;20299;-54
2021/09/09 05:21:10;;;;;;;;;;;;;;;15.51;84.21;100966.53;5051759;28;19940;-50
2021/09/09 05:23:36;;;;;;;;;;;;;;;15.48;84.54;100968.59;5051294;28;20406;-53
2021/09/09 05:26:03;;;;;;;;;;;;;;;15.52;84.66;100959.44;5051193;28;20417;-50
2021/09/09 05:28:29;;;;;;;;;;;;;;;15.49;84.24;100965.00;5049597;28;19975;-50
2021/09/09 05:30:56;;;;;;;;;;;;;;;15.46;84.52;100965.22;5051498;28;19925;-52
2021/09/09 05:33:23;;;;;;;;;;;;;;;15.45;84.69;100972.34;5049692;28;19955;-49
2021/09/09 05:35:49;;;;;;;;;;;;;;;15.46;84.74;100959.94;5050902;28;19931;-49
2021/09/09 05:38:16;;;;;;;;;;;;;;;15.51;84.84;100963.03;5050861;28;20447;-50
2021/09/09 05:40:43;;;;;;;;;;;;;;;15.50;84.35;100962.22;5050520;28;19986;-51
2021/09/09 05:43:09;;;;;;;;;;;;;;;15.49;85.43;100957.03;5031405;28;19936;-52
2021/09/09 05:45:36;;;;;;;;;;;;;;;15.53;84.76;100966.41;5050029;28;19935;-51
2021/09/09 05:48:04;;;;;;;;;;;;;;;15.51;84.83;100963.88;5051355;28;19925;-51
2021/09/09 05:50:30;;;;;;;;;;;;;;;15.49;84.71;100967.66;5048890;28;19976;-51
2021/09/09 05:52:57;;;;;;;;;;;;;;;15.52;85.22;100962.91;5049752;28;20398;-51
2021/09/09 05:55:24;;;;;;;;;;;;;;;15.57;84.78;100970.50;5050309;28;19928;-51
2021/09/09 05:57:50;;;;;;;;;;;;;;;15.59;84.82;100959.75;5049490;28;19925;-50
2021/09/09 06:00:17;;;;;;;;;;;;;;;15.61;84.67;100963.97;5050909;28;20346;-54
2021/09/09 06:02:47;;;;;;;;;;;;;;;15.63;85.06;100972.59;5050875;28;20427;-52
2021/09/09 06:05:15;;;;;;;;;;;;;;;15.66;84.71;100972.34;5033065;28;19924;-49
2021/09/09 06:07:41;;;;;;;;;;;;;;;15.71;84.88;100975.44;5050587;28;19932;-53
2021/09/09 06:10:08;;;;;;;;;;;;;;;15.77;84.65;100968.78;5049547;28;20371;-53
2021/09/09 06:12:36;;;;;;;;;;;;;;;15.78;84.71;100985.53;5048794;28;20388;-52
2021/09/09 06:15:04;;;;;;;;;;;;;;;15.91;84.36;100980.06;5050781;28;19925;-53
2021/09/09 06:17:31;;;;;;;;;;;;;;;15.91;84.51;100980.91;5048972;28;19925;-51
2021/09/09 06:19:57;;;;;;;;;;;;;;;15.98;84.22;100979.41;5050473;28;19924;-49
2021/09/09 06:22:24;;;;;;;;;;;;;;;16.03;84.33;100979.84;5049730;28;19929;-53
2021/09/09 06:24:50;;;;;;;;;;;;;;;16.10;83.67;100969.56;5032787;28;19932;-54
2021/09/09 06:27:17;;;;;;;;;;;;;;;16.14;83.66;100967.47;5048306;28;20392;-55
2021/09/09 06:29:44;;;;;;;;;;;;;;;16.18;84.00;100966.22;5048911;28;19939;-51
2021/09/09 06:32:10;;;;;;;;;;;;;;;16.25;83.53;100961.22;5045657;28;20384;-53
2021/09/09 06:34:37;;;;;;;;;;;;;;;16.33;83.73;100958.72;5048799;28;19929;-52
2021/09/09 06:37:05;;;;;;;;;;;;;;;16.31;83.80;100952.75;5049119;28;20489;-53
2021/09/09 06:39:32;;;;;;;;;;;;;;;16.37;83.72;100955.69;5048714;28;20548;-52
2021/09/09 06:41:59;;;;;;;;;;;;;;;16.48;83.04;100951.22;5047441;28;19979;-52
2021/09/09 06:44:25;;;;;;;;;;;;;;;16.55;82.66;100952.38;5048311;28;19949;-45
2021/09/09 06:46:52;;;;;;;;;;;;;;;16.60;82.00;100951.97;5049244;28;20011;-43
2021/09/09 06:49:18;;;;;;;;;;;;;;;16.67;81.84;100955.75;5048655;28;20414;-46
2021/09/09 06:51:45;;;;;;;;;;;;;;;16.75;82.37;100952.41;5049390;28;19948;-44
2021/09/09 06:54:12;;;;;;;;;;;;;;;16.85;80.89;100959.41;5047751;28;19936;-46
2021/09/09 06:56:38;;;;;;;;;;;;;;;16.96;81.24;100950.50;5048528;28;19982;-43
2021/09/09 06:59:05;;;;;;;;;;;;;;;17.03;80.73;100943.66;5050851;28;19994;-43
2021/09/09 07:01:31;;;;;;;;;;;;;;;17.08;80.93;100945.88;5051742;28;19925;-45
2021/09/09 07:03:59;;;;;;;;;;;;;;;17.19;80.05;100950.22;5052646;28;19932;-44
2021/09/09 07:06:25;;;;;;;;;;;;;;;17.31;79.84;100949.09;5049115;28;19933;-45
2021/09/09 07:08:52;;;;;;;;;;;;;;;17.45;80.20;100941.66;5048485;28;19951;-42
2021/09/09 07:11:18;;;;;;;;;;;;;;;17.51;78.22;100957.06;5053006;28;19971;-42
2021/09/09 07:13:45;;;;;;;;;;;;;;;17.63;78.76;100952.41;5049447;28;19928;-44
2021/09/09 07:16:12;;;;;;;;;;;;;;;17.79;79.57;100951.81;5049728;28;20002;-43
2021/09/09 07:18:38;;;;;;;;;;;;;;;17.93;77.29;100943.41;5052689;28;19951;-43
2021/09/09 07:21:06;;;;;;;;;;;;;;;18.09;77.38;100948.06;5052747;28;19933;-43
2021/09/09 07:23:33;;;;;;;;;;;;;;;18.27;76.69;100949.97;5053286;28;19971;-44
2021/09/09 07:26:00;;;;;;;;;;;;;;;18.37;76.51;100950.75;5054184;28;20019;-46
2021/09/09 07:28:26;;;;;;;;;;;;;;;18.50;75.70;100953.06;5051058;28;19956;-45
2021/09/09 07:30:53;;;;;;;;;;;;;;;18.66;74.29;100955.06;5053309;28;19932;-49
2021/09/09 07:33:20;;;;;;;;;;;;;;;18.78;74.15;100953.03;5051025;28;20379;-46
2021/09/09 07:35:46;;;;;;;;;;;;;;;18.98;74.87;100965.25;5055037;28;19929;-45
2021/09/09 07:38:15;;;;;;;;;;;;;;;19.04;73.90;100975.28;5054066;28;20179;-46
2021/09/09 07:40:42;;;;;;;;;;;;;;;19.34;73.86;100975.88;5052709;28;19986;-45
2021/09/09 07:43:09;;;;;;;;;;;;;;;19.60;73.49;100967.09;5051352;28;19933;-47
2021/09/09 07:45:36;;;;;;;;;;;;;;;19.70;72.04;100950.97;5055127;28;20461;-45
2021/09/09 07:48:03;;;;;;;;;;;;;;;19.87;70.47;100952.78;5038196;28;19932;-45
2021/09/09 07:50:29;;;;;;;;;;;;;;;19.84;71.26;100958.44;5052374;28;19925;-46
2021/09/09 07:52:57;;;;;;;;;;;;;;;20.03;70.36;100960.03;5052582;28;19933;-55
2021/09/09 07:55:24;;;;;;;;;;;;;;;20.20;69.31;100954.78;5052338;28;20498;-53
2021/09/09 07:57:51;;;;;;;;;;;;;;;20.38;70.28;100952.00;5049567;28;19924;-49
2021/09/09 08:00:18;;;;;;;;;;;;;;;20.56;68.51;100954.56;5052486;28;19924;-53
2021/09/09 08:02:44;;;;;;;;;;;;;;;20.70;67.32;100961.97;5055878;28;20269;-54
2021/09/09 08:05:12;;;;;;;;;;;;;;;20.89;66.90;100963.50;5054496;28;19924;-53
2021/09/09 08:07:39;;;;;;;;;;;;;;;21.28;67.44;100956.69;5052975;28;20011;-53
2021/09/09 08:10:07;;;;;;;;;;;;;;;21.54;65.85;100958.38;5033950;28;19951;-52
2021/09/09 08:12:33;;;;;;;;;;;;;;;21.69;66.43;100964.72;5050425;28;20315;-53
2021/09/09 08:15:00;;;;;;;;;;;;;;;21.70;63.30;100965.53;5052036;28;20011;-52
2021/09/09 08:17:27;;;;;;;;;;;;;;;22.05;63.56;100964.28;5051867;28;19925;-53
2021/09/09 08:19:54;;;;;;;;;;;;;;;22.26;62.43;100962.84;5052017;28;20426;-52
2021/09/09 08:22:21;;;;;;;;;;;;;;;22.28;60.83;100958.16;5052005;28;19971;-52
2021/09/09 08:24:47;;;;;;;;;;;;;;;22.59;61.66;100949.31;5053552;28;19928;-54
2021/09/09 08:27:14;;;;;;;;;;;;;;;22.83;59.48;100953.69;5048710;28;19932;-51
2021/09/09 08:29:41;;;;;;;;;;;;;;;22.92;58.64;100949.13;5053961;28;20375;-53
2021/09/09 08:32:07;;;;;;;;;;;;;;;23.11;58.37;100948.63;5055256;28;19929;-53
2021/09/09 08:34:34;;;;;;;;;;;;;;;23.38;57.35;100941.06;5054982;28;20047;-53
2021/09/09 08:37:00;;;;;;;;;;;;;;;23.51;56.68;100940.41;5053727;28;20268;-52
2021/09/09 08:39:27;;;;;;;;;;;;;;;23.59;56.95;100942.19;5037192;28;19932;-53
2021/09/09 08:41:54;;;;;;;;;;;;;;;23.76;57.31;100950.91;5055072;28;19970;-52
2021/09/09 08:44:21;;;;;;;;;;;;;;;24.03;56.43;100948.63;5053600;28;19933;-44
2021/09/09 08:46:50;;;;;;;;;;;;;;;24.16;54.22;100946.13;5053779;28;19924;-45
2021/09/09 08:49:26;;;;;;;;;;;;;;;24.12;55.05;100942.97;5054925;28;19987;-46
2021/09/09 08:51:53;;;;;;;;;;;;;;;24.28;54.39;100943.75;5051608;28;20462;-50
2021/09/09 08:54:20;;;;;;;;;;;;;;;24.44;54.34;100938.16;5050841;28;19978;-47
2021/09/09 08:56:47;;;;;;;;;;;;;;;24.74;54.31;100932.72;5049190;28;19937;-48
2021/09/09 08:59:13;;;;;;;;;;;;;;;24.72;52.61;100929.41;5050535;28;19929;-45
2021/09/09 09:02:00;;;;;;;;;;;;;;;24.83;52.96;100935.28;5051331;28;19924;-49
2021/09/09 09:04:28;;;;;;;;;;;;;;;25.07;53.35;100937.59;5046386;28;19952;-49
2021/09/09 09:06:55;;;;;;;;;;;;;;;25.28;52.33;100938.59;5051533;28;19955;-49
2021/09/09 09:09:24;;;;;;;;;;;;;;;25.35;50.58;100934.13;5049425;28;20472;-46
2021/09/09 09:11:51;;;;;;;;;;;;;;;25.35;51.73;100931.44;5052482;28;19929;-46
2021/09/09 09:14:19;;;;;;;;;;;;;;;25.57;50.79;100934.06;5049170;28;20020;-44
2021/09/09 09:16:47;;;;;;;;;;;;;;;25.67;50.76;100929.16;5052000;28;19951;-47
2021/09/09 09:19:14;;;;;;;;;;;;;;;25.65;50.25;100932.03;5051456;28;19928;-49
2021/09/09 09:21:44;;;;;;;;;;;;;;;25.98;50.29;100934.09;5017321;28;19990;-46
2021/09/09 09:24:16;;;;;;;;;;;;;;;26.14;49.57;100934.81;5036671;28;20347;-47
2021/09/09 09:27:02;;;;;;;;;;;;;;;26.41;49.42;100930.38;5054250;28;19960;-44
2021/09/09 09:29:29;;;;;;;;;;;;;;;26.56;48.71;100927.50;5053887;28;19925;-48
2021/09/09 09:32:06;;;;;;;;;;;;;;;26.67;48.90;100934.16;5053706;28;19924;-48
2021/09/09 09:34:33;;;;;;;;;;;;;;;26.64;47.14;100934.56;5053355;28;19929;-48
2021/09/09 09:36:59;;;;;;;;;;;;;;;26.68;47.40;100933.09;5052880;28;19940;-47
2021/09/09 09:39:26;;;;;;;;;;;;;;;26.77;47.99;100933.78;5053490;28;20000;-47
2021/09/09 09:42:00;;;;;;;;;;;;;;;26.89;47.55;100934.84;5052615;28;19924;-47
2021/09/09 09:44:26;;;;;;;;;;;;;;;27.00;47.05;100933.41;5050672;28;19980;-47
2021/09/09 09:46:53;;;;;;;;;;;;;;;27.10;46.88;100943.78;5051337;28;20415;-45
2021/09/09 09:49:25;;;;;;;;;;;;;;;26.90;46.78;100951.84;5053955;28;19928;-45
2021/09/09 09:51:52;;;;;;;;;;;;;;;27.15;47.13;100950.22;5053842;28;20418;-43
2021/09/09 09:54:19;;;;;;;;;;;;;;;27.39;47.74;100947.97;5053185;28;20316;-43
2021/09/09 09:56:47;;;;;;;;;;;;;;;26.99;47.03;100942.53;5052556;28;20253;-52
2021/09/09 09:59:13;;;;;;;;;;;;;;;27.21;47.18;100943.16;5052287;28;19932;-49
2021/09/09 10:01:40;;;;;;;;;;;;;;;27.21;47.15;100939.63;5053635;28;20015;-51
2021/09/09 10:04:08;;;;;;;;;;;;;;;27.57;46.71;100928.41;5051703;28;19924;-53
2021/09/09 10:06:38;;;;;;;;;;;;;;;27.68;46.74;100937.72;5051198;28;19946;-52
2021/09/09 10:09:12;;;;;;;;;;;;;;;27.70;46.82;100932.94;5048597;28;20023;-53
2021/09/09 10:11:39;;;;;;;;;;;;;;;27.62;47.05;100934.00;5048659;28;19929;-52
2021/09/09 10:14:06;;;;;;;;;;;;;;;27.76;46.95;100926.69;5052352;28;20281;-52
2021/09/09 10:16:41;;;;;;;;;;;;;;;27.85;46.81;100929.16;5048478;28;20008;-52
2021/09/09 10:19:11;;;;;;;;;;;;;;;28.35;46.09;100934.81;5048163;28;19974;-50
2021/09/09 10:21:43;;;;;;;;;;;;;;;28.61;44.60;100938.41;5031926;28;19928;-53
2021/09/09 10:24:13;;;;;;;;;;;;;;;28.80;45.09;100934.78;5049950;28;19929;-53
2021/09/09 10:26:40;;;;;;;;;;;;;;;28.95;43.84;100936.34;5050990;28;19951;-51
2021/09/09 10:29:10;;;;;;;;;;;;;;;29.08;44.06;100930.81;5049295;28;19978;-53
2021/09/09 10:31:45;;;;;;;;;;;;;;;29.27;44.63;100929.03;5050112;28;20281;-47
2021/09/09 10:34:22;;;;;;;;;;;;;;;29.33;43.85;100935.44;5030673;28;19933;-47
2021/09/09 10:36:49;;;;;;;;;;;;;;;29.51;44.39;100932.72;5049292;28;19951;-47
2021/09/09 10:39:20;;;;;;;;;;;;;;;29.46;43.58;100931.75;5050749;28;20326;-47
2021/09/09 10:41:47;;;;;;;;;;;;;;;29.42;43.09;100934.06;5047607;28;19925;-54
2021/09/09 10:44:14;;;;;;;;;;;;;;;29.95;42.50;100929.16;5047511;28;20300;-52
2021/09/09 10:46:41;;;;;;;;;;;;;;;30.09;43.17;100919.81;5049992;28;19936;-53
2021/09/09 10:49:18;;;;;;;;;;;;;;;30.02;42.34;100921.78;5048880;28;20395;-54
2021/09/09 10:52:03;;;;;;;;;;;;;;;30.14;42.68;100925.38;5047859;28;19925;-53
2021/09/09 10:54:30;;;;;;;;;;;;;;;29.88;42.40;100925.72;5048965;28;20574;-51
2021/09/09 10:57:10;;;;;;;;;;;;;;;30.25;41.42;100917.53;5047986;28;19972;-53
2021/09/09 10:59:47;;;;;;;;;;;;;;;30.58;41.54;100919.81;5048016;28;19932;-54
2021/09/09 11:02:15;;;;;;;;;;;;;;;30.85;42.17;100916.66;5051383;28;19932;-53
2021/09/09 11:04:42;;;;;;;;;;;;;;;31.00;41.07;100910.78;5051594;28;20391;-54
2021/09/09 11:07:19;;;;;;;;;;;;;;;31.23;41.30;100910.00;5049432;28;19929;-52
2021/09/09 11:09:46;;;;;;;;;;;;;;;31.31;39.54;100912.34;5047881;28;19935;-55
2021/09/09 11:12:12;;;;;;;;;;;;;;;31.27;40.68;100908.47;5033980;28;20024;-54
2021/09/09 11:14:39;;;;;;;;;;;;;;;31.28;40.75;100907.41;5047972;28;19933;-54
2021/09/09 11:17:06;;;;;;;;;;;;;;;31.43;39.54;100906.94;5050314;28;19932;-54
2021/09/09 11:19:34;;;;;;;;;;;;;;;31.08;40.36;100907.75;5048996;28;19925;-54
2021/09/09 11:22:04;;;;;;;;;;;;;;;31.13;39.63;100905.16;5048076;28;19939;-55
2021/09/09 11:24:35;;;;;;;;;;;;;;;31.24;40.35;100899.97;5048938;28;20219;-54
2021/09/09 11:27:02;;;;;;;;;;;;;;;31.46;39.75;100906.44;5046624;28;20052;-49
2021/09/09 11:29:29;;;;;;;;;;;;;;;31.71;40.41;100899.94;5050055;28;19931;-48
2021/09/09 11:31:56;;;;;;;;;;;;;;;31.66;39.12;100897.13;5052515;28;19925;-45
2021/09/09 11:34:24;;;;;;;;;;;;;;;31.96;39.66;100896.94;5049618;28;20032;-48
2021/09/09 11:36:51;;;;;;;;;;;;;;;32.10;39.00;100899.38;5049107;28;19951;-48
2021/09/09 11:39:19;;;;;;;;;;;;;;;32.14;39.28;100904.06;5048688;28;19956;-47
2021/09/09 11:41:46;;;;;;;;;;;;;;;32.22;39.03;100904.75;5047872;28;19978;-46
2021/09/09 11:44:26;;;;;;;;;;;;;;;32.49;38.98;100907.69;5049620;28;19925;-46
2021/09/09 11:47:08;;;;;;;;;;;;;;;32.91;38.60;100906.53;5049747;28;20047;-49
2021/09/09 11:49:34;;;;;;;;;;;;;;;33.29;37.12;100908.50;5047371;28;19929;-50
2021/09/09 11:52:02;;;;;;;;;;;;;;;33.81;36.79;100906.50;5050633;28;19952;-47
2021/09/09 11:54:32;;;;;;;;;;;;;;;33.60;36.94;100902.66;5050596;28;20442;-45
2021/09/09 11:57:12;;;;;;;;;;;;;;;33.20;37.31;100910.81;5047458;28;20052;-45
2021/09/09 11:59:46;;;;;;;;;;;;;;;33.25;37.95;100909.25;5051302;28;19931;-46
2021/09/09 12:02:13;;;;;;;;;;;;;;;33.12;38.30;100908.50;5048107;28;19925;-43
2021/09/09 12:04:41;;;;;;;;;;;;;;;33.02;38.68;100917.34;5051474;28;19928;-46
2021/09/09 12:07:08;;;;;;;;;;;;;;;32.91;38.73;100918.25;5054536;28;20031;-50
2021/09/09 12:09:38;;;;;;;;;;;;;;;32.98;38.32;100912.63;5052599;28;19929;-50
2021/09/09 12:12:06;;;;;;;;;;;;;;;32.69;38.52;100918.94;5051066;28;19929;-47
2021/09/09 12:14:33;;;;;;;;;;;;;;;32.63;39.29;100914.50;5051852;28;20163;-45
2021/09/09 12:17:13;;;;;;;;;;;;;;;32.62;39.18;100920.19;5051086;28;19972;-47
2021/09/09 12:19:53;;;;;;;;;;;;;;;32.66;39.05;100915.91;5051941;28;19936;-44
2021/09/09 12:22:20;;;;;;;;;;;;;;;32.61;39.24;100916.63;5055863;28;19935;-54
2021/09/09 12:24:46;;;;;;;;;;;;;;;33.05;39.36;100924.22;5055701;28;19947;-54
2021/09/09 12:27:15;;;;;;;;;;;;;;;33.30;37.90;100921.06;5048508;28;19924;-54
2021/09/09 12:29:44;;;;;;;;;;;;;;;33.62;38.38;100916.84;5052682;28;19970;-53
2021/09/09 12:32:24;;;;;;;;;;;;;;;33.78;37.10;100907.81;5055262;28;19928;-54
2021/09/09 12:34:50;;;;;;;;;;;;;;;34.12;36.72;100909.56;5055236;28;19946;-54
2021/09/09 12:37:17;;;;;;;;;;;;;;;34.26;36.72;100909.97;5051703;28;19931;-54